createdAt,value
2023-03-02T00:01:54.842Z,11.38
2023-03-02T00:04:37.630Z,10.13
2023-03-02T00:07:08.330Z,10.25
2023-03-02T00:09:36.557Z,10.90
2023-03-02T00:12:05.107Z,10.20
2023-03-02T00:14:32.584Z,12.48
2023-03-02T00:17:04.631Z,9.75
2023-03-02T00:19:32.129Z,13.77
2023-03-02T00:21:59.410Z,11.63
2023-03-02T00:24:26.703Z,11.43
2023-03-02T00:26:54.181Z,11.45
2023-03-02T00:29:21.670Z,10.27
2023-03-02T00:31:49.141Z,12.18
2023-03-02T00:34:17.333Z,12.95
2023-03-02T00:36:49.688Z,10.93
2023-03-02T00:39:20.443Z,11.40
2023-03-02T00:41:48.785Z,10.68
2023-03-02T00:44:19.187Z,11.63
2023-03-02T00:46:46.924Z,12.57
2023-03-02T00:49:14.179Z,13.27
2023-03-02T00:51:41.465Z,12.65
2023-03-02T00:54:08.680Z,10.68
2023-03-02T00:56:36.128Z,9.90
2023-03-02T00:59:27.728Z,11.05
2023-03-02T01:01:59.719Z,10.43
2023-03-02T01:04:32.812Z,10.18
2023-03-02T01:07:04.619Z,10.75
2023-03-02T01:09:31.962Z,15.35
2023-03-02T01:11:59.285Z,9.73
2023-03-02T01:14:27.112Z,9.77
2023-03-02T01:16:54.678Z,13.43
2023-03-02T01:19:22.060Z,11.70
2023-03-02T01:21:49.523Z,10.48
2023-03-02T01:24:16.958Z,12.23
2023-03-02T01:26:44.424Z,13.60
2023-03-02T01:29:12.078Z,13.30
2023-03-02T01:31:39.626Z,11.13
2023-03-02T01:34:07.121Z,15.23
2023-03-02T01:36:35.244Z,13.38
2023-03-02T01:39:02.532Z,12.95
2023-03-02T01:41:29.992Z,14.20
2023-03-02T01:43:57.546Z,12.90
2023-03-02T01:46:28.917Z,12.40
2023-03-02T01:49:05.788Z,11.65
2023-03-02T01:51:46.651Z,15.30
2023-03-02T01:54:23.396Z,12.82
2023-03-02T01:56:58.737Z,11.65
2023-03-02T01:59:28.908Z,13.80
2023-03-02T02:01:58.955Z,11.80
2023-03-02T02:04:29.309Z,11.73
2023-03-02T02:07:02.206Z,12.90
2023-03-02T02:09:34.476Z,15.52
2023-03-02T02:12:01.873Z,12.85
2023-03-02T02:14:29.439Z,13.55
2023-03-02T02:16:57.332Z,11.50
2023-03-02T02:19:42.760Z,13.20
2023-03-02T02:22:11.707Z,11.50
2023-03-02T02:24:54.117Z,13.50
2023-03-02T02:27:22.160Z,10.00
2023-03-02T02:29:52.197Z,10.75
2023-03-02T02:32:28.661Z,11.73
2023-03-02T02:35:12.223Z,9.25
2023-03-02T02:37:52.163Z,10.43
2023-03-02T02:40:40.701Z,9.95
2023-03-02T02:43:11.766Z,11.63
2023-03-02T02:45:39.367Z,8.95
2023-03-02T02:48:15.696Z,12.80
2023-03-02T02:50:44.795Z,10.95
2023-03-02T02:53:21.852Z,13.23
2023-03-02T02:55:52.883Z,10.25
2023-03-02T02:58:33.295Z,9.98
2023-03-02T03:01:01.515Z,13.77
2023-03-02T03:03:36.097Z,13.13
2023-03-02T03:06:06.765Z,10.73
2023-03-02T03:09:01.299Z,8.60
2023-03-02T03:11:31.294Z,9.23
2023-03-02T03:14:39.467Z,11.55
2023-03-02T03:17:12.468Z,10.70
2023-03-02T03:19:45.136Z,9.48
2023-03-02T03:22:15.127Z,15.85
2023-03-02T03:24:44.515Z,10.82
2023-03-02T03:27:15.184Z,10.77
2023-03-02T03:29:50.614Z,11.13
2023-03-02T03:32:18.465Z,11.10
2023-03-02T03:34:46.232Z,11.40
2023-03-02T03:37:16.440Z,10.60
2023-03-02T03:39:44.264Z,10.65
2023-03-02T03:42:12.391Z,10.10
2023-03-02T03:44:39.570Z,10.40
2023-03-02T03:47:06.922Z,10.65
2023-03-02T03:49:34.096Z,9.05
2023-03-02T03:52:01.375Z,12.15
2023-03-02T03:54:28.773Z,9.23
2023-03-02T03:56:58.868Z,9.90
2023-03-02T03:59:28.301Z,11.57
2023-03-02T04:01:58.223Z,9.85
2023-03-02T04:04:32.704Z,10.93
2023-03-02T04:07:00.515Z,10.85
2023-03-02T04:09:28.019Z,12.50
2023-03-02T04:11:56.725Z,9.00
2023-03-02T04:14:25.406Z,11.68
2023-03-02T04:16:53.130Z,9.57
2023-03-02T04:19:21.301Z,10.10
2023-03-02T04:21:52.681Z,11.23
2023-03-02T04:24:21.717Z,15.10
2023-03-02T04:26:49.531Z,14.98
2023-03-02T04:29:17.863Z,11.38
2023-03-02T04:31:45.089Z,8.90
2023-03-02T04:34:12.870Z,9.70
2023-03-02T04:36:41.502Z,12.10
2023-03-02T04:39:10.849Z,9.18
2023-03-02T04:41:38.155Z,9.88
2023-03-02T04:44:05.478Z,9.73
2023-03-02T04:46:34.754Z,8.95
2023-03-02T04:49:02.498Z,9.82
2023-03-02T04:51:32.917Z,12.45
2023-03-02T04:54:03.316Z,9.02
2023-03-02T04:56:31.707Z,9.85
2023-03-02T04:58:59.507Z,10.45
2023-03-02T05:01:27.418Z,10.20
2023-03-02T05:03:57.676Z,9.23
2023-03-02T05:06:28.063Z,10.63
2023-03-02T05:08:55.219Z,10.98
2023-03-02T05:11:26.194Z,12.25
2023-03-02T05:13:56.057Z,10.45
2023-03-02T05:16:25.114Z,8.10
2023-03-02T05:18:52.304Z,11.65
2023-03-02T05:21:20.154Z,11.35
2023-03-02T05:23:47.500Z,8.40
2023-03-02T05:26:15.285Z,10.18
2023-03-02T05:28:42.828Z,11.80
2023-03-02T05:31:12.098Z,12.73
2023-03-02T05:33:39.431Z,15.85
2023-03-02T05:36:06.832Z,10.65
2023-03-02T05:38:34.715Z,10.85
2023-03-02T05:41:02.129Z,11.18
2023-03-02T05:43:29.571Z,10.75
2023-03-02T05:46:00.805Z,12.15
2023-03-02T05:48:29.171Z,11.40
2023-03-02T05:50:56.605Z,10.70
2023-03-02T05:53:26.994Z,11.18
2023-03-02T05:55:54.694Z,10.40
2023-03-02T05:58:22.270Z,10.85
2023-03-02T06:00:50.201Z,11.82
2023-03-02T06:03:17.553Z,10.60
2023-03-02T06:05:45.123Z,10.30
2023-03-02T06:08:12.443Z,10.23
2023-03-02T06:10:39.823Z,8.10
2023-03-02T06:13:09.351Z,14.75
2023-03-02T06:15:37.341Z,10.10
2023-03-02T06:18:04.675Z,9.48
2023-03-02T06:20:31.840Z,12.18
2023-03-02T06:22:59.163Z,9.20
2023-03-02T06:25:26.603Z,9.15
2023-03-02T06:27:54.007Z,8.75
2023-03-02T06:30:25.607Z,9.32
2023-03-02T06:32:53.055Z,10.15
2023-03-02T06:35:21.443Z,10.15
2023-03-02T06:37:48.817Z,9.50
2023-03-02T06:40:16.278Z,9.43
2023-03-02T06:42:43.772Z,10.82
2023-03-02T06:45:12.359Z,11.68
2023-03-02T06:47:39.589Z,9.50
2023-03-02T06:50:08.398Z,10.13
2023-03-02T06:52:36.064Z,11.55
2023-03-02T06:55:04.218Z,8.52
2023-03-02T06:57:34.410Z,9.63
2023-03-02T07:00:08.903Z,9.77
2023-03-02T07:02:37.266Z,10.35
2023-03-02T07:05:05.385Z,9.88
2023-03-02T07:07:32.779Z,8.43
2023-03-02T07:09:59.914Z,9.65
2023-03-02T07:12:27.490Z,16.92
2023-03-02T07:14:54.578Z,16.02
2023-03-02T07:17:21.825Z,13.23
2023-03-02T07:19:49.089Z,11.52
2023-03-02T07:22:16.393Z,10.48
2023-03-02T07:24:45.030Z,10.65
2023-03-02T07:27:12.503Z,10.25
2023-03-02T07:29:39.862Z,11.00
2023-03-02T07:32:07.337Z,10.75
2023-03-02T07:34:36.616Z,10.35
2023-03-02T07:37:04.256Z,14.13
2023-03-02T07:39:31.604Z,11.93
2023-03-02T07:42:03.306Z,9.60
2023-03-02T07:44:31.074Z,11.98
2023-03-02T07:46:58.805Z,9.95
2023-03-02T07:49:26.234Z,12.25
2023-03-02T07:51:53.619Z,10.65
2023-03-02T07:54:21.729Z,11.38
2023-03-02T07:56:48.868Z,9.15
2023-03-02T07:59:18.793Z,9.68
2023-03-02T08:01:46.099Z,11.55
2023-03-02T08:04:13.276Z,9.82
2023-03-02T08:06:43.431Z,10.52
2023-03-02T08:09:10.756Z,10.63
2023-03-02T08:11:38.023Z,10.23
2023-03-02T08:14:05.293Z,10.70
2023-03-02T08:16:32.914Z,10.93
2023-03-02T08:19:00.477Z,10.25
2023-03-02T08:21:29.046Z,11.18
2023-03-02T08:23:57.877Z,11.48
2023-03-02T08:26:25.391Z,13.75
2023-03-02T08:28:55.316Z,12.55
2023-03-02T08:31:22.685Z,21.35
2023-03-02T08:33:50.169Z,24.50
2023-03-02T08:36:19.379Z,13.27
2023-03-02T08:38:47.905Z,16.55
2023-03-02T08:41:18.122Z,12.77
2023-03-02T08:43:45.491Z,16.45
2023-03-02T08:46:14.816Z,13.20
2023-03-02T08:48:43.192Z,15.68
2023-03-02T08:51:17.335Z,13.80
2023-03-02T08:53:47.711Z,13.10
2023-03-02T08:56:25.156Z,11.93
2023-03-02T08:58:53.774Z,12.35
2023-03-02T09:01:23.823Z,13.93
2023-03-02T09:03:52.158Z,13.90
2023-03-02T09:06:19.877Z,15.07
2023-03-02T09:08:47.686Z,13.23
2023-03-02T09:11:17.415Z,13.32
2023-03-02T09:13:44.635Z,13.13
2023-03-02T09:16:12.604Z,12.18
2023-03-02T09:18:40.126Z,12.32
2023-03-02T09:21:07.360Z,13.98
2023-03-02T09:23:36.850Z,14.00
2023-03-02T09:26:06.786Z,15.52
2023-03-02T09:28:34.312Z,13.98
2023-03-02T09:31:04.465Z,12.80
2023-03-02T09:33:32.831Z,13.88
2023-03-02T09:36:01.646Z,13.27
2023-03-02T09:38:29.052Z,13.65
2023-03-02T09:40:59.421Z,15.05
2023-03-02T09:43:29.622Z,12.68
2023-03-02T09:46:13.470Z,13.32
2023-03-02T09:48:54.048Z,15.50
2023-03-02T09:51:31.479Z,15.00
2023-03-02T09:54:13.587Z,13.02
2023-03-02T09:56:46.873Z,15.20
2023-03-02T09:59:42.217Z,13.75
2023-03-02T10:02:30.901Z,13.43
2023-03-02T10:05:00.956Z,13.43
2023-03-02T10:07:33.955Z,13.75
2023-03-02T10:10:15.237Z,14.27
2023-03-02T10:12:57.565Z,13.85
2023-03-02T10:15:38.492Z,15.07
2023-03-02T10:18:31.720Z,14.15
2023-03-02T10:21:23.395Z,12.85
2023-03-02T10:24:01.544Z,14.57
2023-03-02T10:26:35.005Z,14.00
2023-03-02T10:29:11.267Z,15.10
2023-03-02T10:31:41.526Z,14.73
2023-03-02T10:34:11.574Z,13.70
2023-03-02T10:36:41.316Z,14.57
2023-03-02T10:39:14.527Z,14.65
2023-03-02T10:42:05.244Z,13.88
2023-03-02T10:44:41.041Z,12.88
2023-03-02T10:47:20.271Z,14.32
2023-03-02T10:49:48.326Z,14.77
2023-03-02T10:52:16.719Z,14.18
2023-03-02T10:54:43.937Z,13.65
2023-03-02T10:57:39.703Z,14.75
2023-03-02T11:00:25.324Z,11.48
2023-03-02T11:02:55.485Z,11.20
2023-03-02T11:05:45.725Z,11.10
2023-03-02T11:08:27.740Z,12.25
2023-03-02T11:11:01.507Z,13.25
2023-03-02T11:13:38.211Z,12.40
2023-03-02T11:16:24.182Z,11.18
2023-03-02T11:19:05.587Z,11.88
2023-03-02T11:21:39.828Z,11.85
2023-03-02T11:24:33.867Z,11.17
2023-03-02T11:27:12.882Z,10.02
2023-03-02T11:29:57.967Z,11.80
2023-03-02T11:32:37.330Z,10.85
2023-03-02T11:35:15.274Z,12.68
2023-03-02T11:37:52.785Z,13.48
2023-03-02T11:40:26.799Z,16.10
2023-03-02T11:42:58.713Z,13.20
2023-03-02T11:45:45.394Z,10.23
2023-03-02T11:48:42.097Z,10.95
2023-03-02T11:51:17.208Z,11.18
2023-03-02T11:53:51.428Z,10.35
2023-03-02T11:56:18.776Z,10.93
2023-03-02T11:58:53.408Z,9.30
2023-03-02T12:01:27.478Z,8.90
2023-03-02T12:06:44.247Z,11.23
2023-03-02T12:09:23.807Z,11.95
2023-03-02T12:12:29.989Z,10.68
2023-03-02T12:15:01.352Z,10.70
2023-03-02T12:17:33.389Z,10.60
2023-03-02T12:20:21.876Z,10.43
2023-03-02T12:22:51.671Z,13.02
2023-03-02T12:25:21.826Z,8.95
2023-03-02T12:27:51.493Z,11.88
2023-03-02T12:30:27.750Z,13.15
2023-03-02T12:33:21.534Z,10.68
2023-03-02T12:35:52.949Z,11.60
2023-03-02T12:38:34.214Z,11.38
2023-03-02T12:41:33.144Z,11.18
2023-03-02T12:44:14.681Z,12.43
2023-03-02T12:46:46.997Z,10.57
2023-03-02T12:49:27.610Z,11.20
2023-03-02T12:52:03.530Z,11.25
2023-03-02T12:54:33.955Z,11.55
2023-03-02T12:57:16.315Z,11.63
2023-03-02T12:59:44.006Z,11.73
2023-03-02T13:02:21.773Z,11.13
2023-03-02T13:05:04.109Z,12.27
2023-03-02T13:07:39.978Z,12.90
2023-03-02T13:10:22.369Z,12.65
2023-03-02T13:12:49.744Z,13.10
2023-03-02T13:15:18.260Z,13.68
2023-03-02T13:17:52.789Z,14.32
2023-03-02T13:20:22.668Z,13.88
2023-03-02T13:22:50.450Z,12.77
2023-03-02T13:25:30.003Z,14.68
2023-03-02T13:28:07.658Z,13.23
2023-03-02T13:30:37.800Z,12.25
2023-03-02T13:33:23.143Z,12.95
2023-03-02T13:35:50.712Z,12.70
2023-03-02T13:38:21.032Z,13.43
2023-03-02T13:40:54.103Z,13.35
2023-03-02T13:43:30.134Z,13.70
2023-03-02T13:46:00.285Z,13.27
2023-03-02T13:48:29.255Z,12.38
2023-03-02T13:51:15.670Z,12.25
2023-03-02T13:53:54.010Z,11.73
2023-03-02T13:56:29.809Z,13.15
2023-03-02T13:58:57.550Z,12.75
2023-03-02T14:01:25.141Z,12.45
2023-03-02T14:03:52.319Z,12.57
2023-03-02T14:06:19.894Z,10.43
2023-03-02T14:08:47.574Z,13.25
2023-03-02T14:11:16.098Z,12.05
2023-03-02T14:13:55.934Z,12.63
2023-03-02T14:16:25.522Z,12.90
2023-03-02T14:18:52.959Z,12.00
2023-03-02T14:21:22.801Z,12.75
2023-03-02T14:23:52.740Z,12.13
2023-03-02T14:26:45.242Z,15.00
2023-03-02T14:29:22.788Z,12.55
2023-03-02T14:31:50.241Z,13.90
2023-03-02T14:34:18.268Z,12.30
2023-03-02T14:36:48.452Z,14.57
2023-03-02T14:39:30.742Z,14.45
2023-03-02T14:41:58.470Z,12.45
2023-03-02T14:44:25.945Z,12.57
2023-03-02T14:46:53.567Z,14.00
2023-03-02T14:49:21.568Z,13.55
2023-03-02T14:52:13.020Z,12.77
2023-03-02T14:54:56.799Z,13.55
2023-03-02T14:57:26.281Z,13.45
2023-03-02T14:59:54.683Z,12.88
2023-03-02T15:02:27.187Z,11.50
2023-03-02T15:04:57.607Z,11.38
2023-03-02T15:07:26.928Z,10.82
2023-03-02T15:09:55.910Z,11.20
2023-03-02T15:12:23.621Z,12.85
2023-03-02T15:14:50.751Z,11.23
2023-03-02T15:17:17.996Z,10.10
2023-03-02T15:19:45.417Z,10.05
2023-03-02T15:22:13.640Z,8.93
2023-03-02T15:24:40.934Z,9.38
2023-03-02T15:27:08.306Z,9.88
2023-03-02T15:29:35.712Z,10.65
2023-03-02T15:32:02.922Z,11.70
2023-03-02T15:34:30.050Z,9.63
2023-03-02T15:36:57.713Z,10.60
2023-03-02T15:39:24.992Z,11.50
2023-03-02T15:41:54.033Z,10.98
2023-03-02T15:44:24.335Z,11.32
2023-03-02T15:46:54.573Z,10.68
2023-03-02T15:49:24.763Z,11.32
2023-03-02T15:51:52.329Z,11.85
2023-03-02T15:54:19.857Z,9.77
2023-03-02T15:56:54.253Z,10.65
2023-03-02T15:59:23.658Z,10.43
2023-03-02T16:01:51.653Z,11.23
2023-03-02T16:04:18.993Z,11.02
2023-03-02T16:06:46.490Z,11.30
2023-03-02T16:09:13.846Z,10.95
2023-03-02T16:11:41.131Z,10.55
2023-03-02T16:14:08.470Z,11.63
2023-03-02T16:16:36.420Z,12.30
2023-03-02T16:19:03.959Z,13.20
2023-03-02T16:21:31.149Z,14.68
2023-03-02T16:24:05.165Z,12.40
2023-03-02T16:26:34.325Z,17.58
2023-03-02T16:29:02.025Z,15.20
2023-03-02T16:31:32.653Z,17.95
2023-03-02T16:34:04.014Z,13.43
2023-03-02T16:36:31.436Z,12.18
2023-03-02T16:38:58.667Z,10.27
2023-03-02T16:41:26.185Z,12.32
2023-03-02T16:43:56.902Z,12.77
2023-03-02T16:46:26.468Z,11.93
2023-03-02T16:48:54.879Z,14.57
2023-03-02T16:51:22.535Z,11.30
2023-03-02T16:53:49.967Z,12.20
2023-03-02T16:56:17.450Z,12.18
2023-03-02T16:58:44.996Z,11.85
2023-03-02T17:01:17.577Z,13.95
2023-03-02T17:03:46.339Z,12.80
2023-03-02T17:06:15.811Z,13.27
2023-03-02T17:08:43.103Z,15.32
2023-03-02T17:11:10.775Z,16.77
2023-03-02T17:13:38.840Z,15.98
2023-03-02T17:16:06.368Z,17.55
2023-03-02T17:18:34.329Z,18.08
2023-03-02T17:21:02.455Z,18.35
2023-03-02T17:23:31.867Z,16.77
2023-03-02T17:25:59.207Z,15.13
2023-03-02T17:28:26.409Z,16.30
2023-03-02T17:30:53.840Z,17.40
2023-03-02T17:33:21.049Z,21.95
2023-03-02T17:35:48.310Z,22.05
2023-03-02T17:38:15.930Z,19.80
2023-03-02T17:40:43.907Z,14.70
2023-03-02T17:43:12.753Z,16.63
2023-03-02T17:45:40.513Z,15.05
2023-03-02T17:48:07.898Z,17.23
2023-03-02T17:50:40.270Z,16.23
2023-03-02T17:53:07.612Z,16.38
2023-03-02T17:55:38.380Z,14.05
2023-03-02T17:58:05.719Z,16.05
2023-03-02T18:00:36.209Z,30.92
2023-03-02T18:03:03.771Z,39.92
2023-03-02T18:05:31.201Z,31.85
2023-03-02T18:07:58.426Z,18.95
2023-03-02T18:10:25.849Z,16.20
2023-03-02T18:12:57.166Z,16.55
2023-03-02T18:15:24.870Z,17.88
2023-03-02T18:17:52.107Z,15.45
2023-03-02T18:20:19.616Z,16.02
2023-03-02T18:22:47.529Z,14.30
2023-03-02T18:25:16.104Z,14.68
2023-03-02T18:27:43.402Z,14.63
2023-03-02T18:30:12.115Z,13.40
2023-03-02T18:32:39.437Z,15.20
2023-03-02T18:35:07.372Z,14.68
2023-03-02T18:37:35.240Z,13.98
2023-03-02T18:40:02.664Z,14.18
2023-03-02T18:42:30.642Z,15.98
2023-03-02T18:45:01.373Z,13.27
2023-03-02T18:47:34.194Z,14.85
2023-03-02T18:50:02.625Z,13.27
2023-03-02T18:52:29.870Z,14.50
2023-03-02T18:54:58.232Z,14.95
2023-03-02T18:57:26.078Z,14.90
2023-03-02T18:59:53.414Z,13.90
2023-03-02T19:02:20.613Z,13.80
2023-03-02T19:04:48.563Z,13.15
2023-03-02T19:07:18.105Z,14.40
2023-03-02T19:09:45.428Z,13.68
2023-03-02T19:12:15.417Z,14.15
2023-03-02T19:14:44.048Z,16.05
2023-03-02T19:17:11.542Z,16.00
2023-03-02T19:19:38.749Z,16.50
2023-03-02T19:22:06.618Z,13.80
2023-03-02T19:24:33.964Z,15.95
2023-03-02T19:27:02.792Z,13.45
2023-03-02T19:29:30.219Z,14.27
2023-03-02T19:31:57.693Z,15.45
2023-03-02T19:34:27.685Z,13.00
2023-03-02T19:36:54.955Z,12.57
2023-03-02T19:39:22.238Z,12.57
2023-03-02T19:41:49.747Z,13.75
2023-03-02T19:44:19.723Z,12.90
2023-03-02T19:46:47.164Z,13.48
2023-03-02T19:49:14.340Z,12.70
2023-03-02T19:51:41.982Z,14.82
2023-03-02T19:54:09.151Z,14.45
2023-03-02T19:56:40.401Z,14.68
2023-03-02T19:59:08.136Z,13.80
2023-03-02T20:01:35.992Z,13.48
2023-03-02T20:04:04.092Z,15.40
2023-03-02T20:06:34.358Z,13.85
2023-03-02T20:09:05.733Z,14.02
2023-03-02T20:11:33.302Z,13.10
2023-03-02T20:14:03.988Z,13.75
2023-03-02T20:16:34.044Z,14.50
2023-03-02T20:19:02.430Z,13.98
2023-03-02T20:21:34.877Z,15.15
2023-03-02T20:24:02.489Z,13.38
2023-03-02T20:26:29.856Z,13.80
2023-03-02T20:28:59.282Z,12.38
2023-03-02T20:31:27.095Z,14.55
2023-03-02T20:33:56.393Z,12.32
2023-03-02T20:36:30.126Z,12.38
2023-03-02T20:39:22.606Z,14.75
2023-03-02T20:41:50.580Z,13.38
2023-03-02T20:44:18.199Z,14.10
2023-03-02T20:46:53.774Z,13.35
2023-03-02T20:49:25.846Z,12.80
2023-03-02T20:51:55.114Z,14.27
2023-03-02T20:54:25.991Z,14.10
2023-03-02T20:56:54.487Z,16.42
2023-03-02T20:59:23.025Z,16.92
2023-03-02T21:01:51.272Z,16.25
2023-03-02T21:04:20.007Z,15.40
2023-03-02T21:06:47.980Z,16.95
2023-03-02T21:09:15.788Z,16.27
2023-03-02T21:11:44.014Z,15.45
2023-03-02T21:14:14.500Z,15.00
2023-03-02T21:16:44.593Z,16.67
2023-03-02T21:19:16.348Z,17.77
2023-03-02T21:21:44.361Z,22.35
2023-03-02T21:24:17.007Z,18.77
2023-03-02T21:26:49.479Z,17.92
2023-03-02T21:29:21.505Z,19.17
2023-03-02T21:31:48.934Z,15.18
2023-03-02T21:34:19.289Z,16.88
2023-03-02T21:36:47.101Z,16.02
2023-03-02T21:39:14.781Z,16.58
2023-03-02T21:41:42.222Z,13.95
2023-03-02T21:44:09.885Z,17.25
2023-03-02T21:46:41.921Z,15.30
2023-03-02T21:49:09.164Z,15.73
2023-03-02T21:51:36.518Z,15.48
2023-03-02T21:54:05.045Z,17.15
2023-03-02T21:56:32.122Z,15.95
2023-03-02T21:59:02.201Z,18.75
2023-03-02T22:01:30.224Z,16.73
2023-03-02T22:03:58.409Z,17.85
2023-03-02T22:06:31.553Z,17.48
2023-03-02T22:08:59.816Z,19.20
2023-03-02T22:11:33.524Z,17.27
2023-03-02T22:14:17.589Z,18.13
2023-03-02T22:16:47.607Z,17.23
2023-03-02T22:19:27.284Z,17.52
2023-03-02T22:22:03.383Z,19.33
2023-03-02T22:24:32.702Z,18.83
2023-03-02T22:27:04.677Z,18.70
2023-03-02T22:29:52.550Z,18.33
2023-03-02T22:32:25.824Z,18.75
2023-03-02T22:35:14.311Z,16.52
2023-03-02T22:37:41.712Z,18.77
2023-03-02T22:40:21.863Z,16.58
2023-03-02T22:42:49.015Z,20.50
2023-03-02T22:45:21.565Z,17.10
2023-03-02T22:47:53.023Z,17.73
2023-03-02T22:50:30.319Z,16.20
2023-03-02T22:53:00.717Z,16.95
2023-03-02T22:55:43.306Z,15.20
2023-03-02T22:58:32.652Z,16.50
2023-03-02T23:01:01.612Z,16.00
2023-03-02T23:03:39.158Z,18.02
2023-03-02T23:06:27.572Z,16.85
2023-03-02T23:08:58.106Z,19.63
2023-03-02T23:11:29.798Z,16.83
2023-03-02T23:14:00.108Z,17.15
2023-03-02T23:16:29.560Z,18.15
2023-03-02T23:18:59.638Z,18.75
2023-03-02T23:21:48.409Z,17.88
2023-03-02T23:24:18.156Z,17.35
2023-03-02T23:26:46.072Z,19.42
2023-03-02T23:29:13.572Z,18.88
2023-03-02T23:31:41.144Z,19.30
2023-03-02T23:34:08.741Z,17.25
2023-03-02T23:36:37.927Z,17.30
2023-03-02T23:39:06.312Z,18.02
2023-03-02T23:41:34.137Z,17.67
2023-03-02T23:44:01.407Z,19.70
2023-03-02T23:46:29.773Z,19.25
2023-03-02T23:48:56.840Z,19.92
2023-03-02T23:51:26.362Z,21.60
2023-03-02T23:53:54.135Z,20.27
2023-03-02T23:56:21.916Z,18.77
2023-03-02T23:58:49.626Z,17.92
